sensor_id;sensor_type;location;lat;lon;timestamp;temperature;humidity
69418;DHT22;56610;48.872;2.400;2023-08-06T00:01:33;17.20;99.90
69418;DHT22;56610;48.872;2.400;2023-08-06T00:03:58;17.20;99.90
69418;DHT22;56610;48.872;2.400;2023-08-06T00:06:25;17.20;99.90
69418;DHT22;56610;48.872;2.400;2023-08-06T00:08:50;17.20;99.90
69418;DHT22;56610;48.872;2.400;2023-08-06T00:11:16;17.20;99.90
69418;DHT22;56610;48.872;2.400;2023-08-06T00:13:42;17.20;99.90
69418;DHT22;56610;48.872;2.400;2023-08-06T00:16:13;17.10;99.90
69418;DHT22;56610;48.872;2.400;2023-08-06T00:18:39;17.10;99.90
69418;DHT22;56610;48.872;2.400;2023-08-06T00:21:05;17.10;99.90
69418;DHT22;56610;48.872;2.400;2023-08-06T00:23:31;17.00;99.90
69418;DHT22;56610;48.872;2.400;2023-08-06T00:25:56;17.00;99.90
69418;DHT22;56610;48.872;2.400;2023-08-06T00:28:22;17.10;99.90
69418;DHT22;56610;48.872;2.400;2023-08-06T00:30:53;17.20;99.90
69418;DHT22;56610;48.872;2.400;2023-08-06T00:33:19;17.20;99.90
69418;DHT22;56610;48.872;2.400;2023-08-06T00:35:45;17.20;99.90
69418;DHT22;56610;48.872;2.400;2023-08-06T00:38:12;17.20;99.90
69418;DHT22;56610;48.872;2.400;2023-08-06T00:40:37;17.20;99.90
69418;DHT22;56610;48.872;2.400;2023-08-06T00:43:03;17.20;99.90
69418;DHT22;56610;48.872;2.400;2023-08-06T00:45:29;17.20;99.90
69418;DHT22;56610;48.872;2.400;2023-08-06T00:47:56;17.20;99.90
69418;DHT22;56610;48.872;2.400;2023-08-06T00:50:21;17.20;99.90
69418;DHT22;56610;48.872;2.400;2023-08-06T00:52:49;17.20;99.90
69418;DHT22;56610;48.872;2.400;2023-08-06T00:55:15;17.20;99.90
69418;DHT22;56610;48.872;2.400;2023-08-06T00:57:41;17.10;99.90
69418;DHT22;56610;48.872;2.400;2023-08-06T01:00:07;17.10;99.90
69418;DHT22;56610;48.872;2.400;2023-08-06T01:02:33;17.10;99.90
69418;DHT22;56610;48.872;2.400;2023-08-06T01:04:58;17.10;99.90
69418;DHT22;56610;48.872;2.400;2023-08-06T01:10:51;17.00;99.90
69418;DHT22;56610;48.872;2.400;2023-08-06T01:15:55;16.80;99.90
69418;DHT22;56610;48.872;2.400;2023-08-06T01:18:27;16.70;99.90
69418;DHT22;56610;48.872;2.400;2023-08-06T01:20:53;16.70;99.90
69418;DHT22;56610;48.872;2.400;2023-08-06T01:23:18;16.70;99.90
69418;DHT22;56610;48.872;2.400;2023-08-06T01:26:01;16.80;99.90
69418;DHT22;56610;48.872;2.400;2023-08-06T01:28:41;16.70;99.90
69418;DHT22;56610;48.872;2.400;2023-08-06T01:31:15;16.80;99.90
69418;DHT22;56610;48.872;2.400;2023-08-06T01:33:43;16.90;99.90
69418;DHT22;56610;48.872;2.400;2023-08-06T01:36:10;16.90;99.90
69418;DHT22;56610;48.872;2.400;2023-08-06T01:38:36;16.80;99.90
69418;DHT22;56610;48.872;2.400;2023-08-06T01:41:02;16.80;99.90
69418;DHT22;56610;48.872;2.400;2023-08-06T01:43:27;16.90;99.90
69418;DHT22;56610;48.872;2.400;2023-08-06T01:45:53;16.80;99.90
69418;DHT22;56610;48.872;2.400;2023-08-06T01:48:18;16.80;99.90
69418;DHT22;56610;48.872;2.400;2023-08-06T01:50:44;16.80;99.90
69418;DHT22;56610;48.872;2.400;2023-08-06T01:53:10;16.80;99.90
69418;DHT22;56610;48.872;2.400;2023-08-06T01:55:35;16.80;99.90
69418;DHT22;56610;48.872;2.400;2023-08-06T01:58:01;16.80;99.90
69418;DHT22;56610;48.872;2.400;2023-08-06T02:00:26;16.80;99.90
69418;DHT22;56610;48.872;2.400;2023-08-06T02:02:53;16.90;99.90
69418;DHT22;56610;48.872;2.400;2023-08-06T02:05:18;17.00;99.90
69418;DHT22;56610;48.872;2.400;2023-08-06T02:07:44;16.90;99.90
69418;DHT22;56610;48.872;2.400;2023-08-06T02:10:10;16.90;99.90
69418;DHT22;56610;48.872;2.400;2023-08-06T02:12:35;16.80;99.90
69418;DHT22;56610;48.872;2.400;2023-08-06T02:15:01;16.80;99.90
69418;DHT22;56610;48.872;2.400;2023-08-06T02:17:26;16.80;99.90
69418;DHT22;56610;48.872;2.400;2023-08-06T02:19:52;16.80;99.90
69418;DHT22;56610;48.872;2.400;2023-08-06T02:22:17;16.80;99.90
69418;DHT22;56610;48.872;2.400;2023-08-06T02:24:43;16.80;99.90
69418;DHT22;56610;48.872;2.400;2023-08-06T02:27:08;16.80;99.90
69418;DHT22;56610;48.872;2.400;2023-08-06T02:29:34;16.80;99.90
69418;DHT22;56610;48.872;2.400;2023-08-06T02:31:59;16.80;99.90
69418;DHT22;56610;48.872;2.400;2023-08-06T02:34:27;16.70;99.90
69418;DHT22;56610;48.872;2.400;2023-08-06T02:36:53;16.80;99.90
69418;DHT22;56610;48.872;2.400;2023-08-06T02:39:19;16.70;99.90
69418;DHT22;56610;48.872;2.400;2023-08-06T02:41:44;16.70;99.90
69418;DHT22;56610;48.872;2.400;2023-08-06T02:44:10;16.70;99.90
69418;DHT22;56610;48.872;2.400;2023-08-06T02:46:35;16.80;99.90
69418;DHT22;56610;48.872;2.400;2023-08-06T02:49:01;16.70;99.90
69418;DHT22;56610;48.872;2.400;2023-08-06T02:51:26;16.60;99.90
69418;DHT22;56610;48.872;2.400;2023-08-06T02:53:52;16.60;99.90
69418;DHT22;56610;48.872;2.400;2023-08-06T02:56:18;16.60;99.90
69418;DHT22;56610;48.872;2.400;2023-08-06T02:58:43;16.60;99.90
69418;DHT22;56610;48.872;2.400;2023-08-06T03:01:09;16.60;99.90
69418;DHT22;56610;48.872;2.400;2023-08-06T03:03:35;16.50;99.90
69418;DHT22;56610;48.872;2.400;2023-08-06T03:06:00;16.60;99.90
69418;DHT22;56610;48.872;2.400;2023-08-06T03:08:26;16.50;99.90
69418;DHT22;56610;48.872;2.400;2023-08-06T03:10:52;16.50;99.90
69418;DHT22;56610;48.872;2.400;2023-08-06T03:13:18;16.60;99.90
69418;DHT22;56610;48.872;2.400;2023-08-06T03:15:52;16.60;99.90
69418;DHT22;56610;48.872;2.400;2023-08-06T03:18:18;16.60;99.90
69418;DHT22;56610;48.872;2.400;2023-08-06T03:20:44;16.60;99.90
69418;DHT22;56610;48.872;2.400;2023-08-06T03:23:10;16.60;99.90
69418;DHT22;56610;48.872;2.400;2023-08-06T03:25:36;16.60;99.90
69418;DHT22;56610;48.872;2.400;2023-08-06T03:28:02;16.60;99.90
69418;DHT22;56610;48.872;2.400;2023-08-06T03:30:28;16.70;99.90
69418;DHT22;56610;48.872;2.400;2023-08-06T03:32:53;16.60;99.90
69418;DHT22;56610;48.872;2.400;2023-08-06T03:35:19;16.60;99.90
69418;DHT22;56610;48.872;2.400;2023-08-06T03:37:44;16.70;99.90
69418;DHT22;56610;48.872;2.400;2023-08-06T03:40:10;16.60;99.90
69418;DHT22;56610;48.872;2.400;2023-08-06T03:42:36;16.60;99.90
69418;DHT22;56610;48.872;2.400;2023-08-06T03:45:01;16.70;99.90
69418;DHT22;56610;48.872;2.400;2023-08-06T03:47:27;16.60;99.90
69418;DHT22;56610;48.872;2.400;2023-08-06T03:49:52;16.50;99.90
69418;DHT22;56610;48.872;2.400;2023-08-06T03:52:18;16.40;99.90
69418;DHT22;56610;48.872;2.400;2023-08-06T03:54:44;16.40;99.90
69418;DHT22;56610;48.872;2.400;2023-08-06T03:57:09;16.50;99.90
69418;DHT22;56610;48.872;2.400;2023-08-06T03:59:35;16.40;99.90
69418;DHT22;56610;48.872;2.400;2023-08-06T04:02:01;16.40;99.90
69418;DHT22;56610;48.872;2.400;2023-08-06T04:04:27;16.40;99.90
69418;DHT22;56610;48.872;2.400;2023-08-06T04:06:53;16.30;99.90
69418;DHT22;56610;48.872;2.400;2023-08-06T04:09:18;16.40;99.90
69418;DHT22;56610;48.872;2.400;2023-08-06T04:11:44;16.40;99.90
69418;DHT22;56610;48.872;2.400;2023-08-06T04:14:10;16.40;99.90
69418;DHT22;56610;48.872;2.400;2023-08-06T04:16:35;16.50;99.90
69418;DHT22;56610;48.872;2.400;2023-08-06T04:19:01;16.50;99.90
69418;DHT22;56610;48.872;2.400;2023-08-06T04:21:26;16.40;99.90
69418;DHT22;56610;48.872;2.400;2023-08-06T04:23:52;16.40;99.90
69418;DHT22;56610;48.872;2.400;2023-08-06T04:26:17;16.50;99.90
69418;DHT22;56610;48.872;2.400;2023-08-06T04:28:43;16.50;99.90
69418;DHT22;56610;48.872;2.400;2023-08-06T04:31:09;16.40;99.90
69418;DHT22;56610;48.872;2.400;2023-08-06T04:33:34;16.50;99.90
69418;DHT22;56610;48.872;2.400;2023-08-06T04:36:00;16.50;99.90
69418;DHT22;56610;48.872;2.400;2023-08-06T04:38:26;16.40;99.90
69418;DHT22;56610;48.872;2.400;2023-08-06T04:40:52;16.50;99.90
69418;DHT22;56610;48.872;2.400;2023-08-06T04:43:18;16.50;99.90
69418;DHT22;56610;48.872;2.400;2023-08-06T04:45:48;16.50;99.90
69418;DHT22;56610;48.872;2.400;2023-08-06T04:48:14;16.50;99.90
69418;DHT22;56610;48.872;2.400;2023-08-06T04:50:46;16.40;99.90
69418;DHT22;56610;48.872;2.400;2023-08-06T04:53:12;16.40;99.90
69418;DHT22;56610;48.872;2.400;2023-08-06T04:55:38;16.40;99.90
69418;DHT22;56610;48.872;2.400;2023-08-06T04:58:04;16.50;99.90
69418;DHT22;56610;48.872;2.400;2023-08-06T05:00:29;16.50;99.90
69418;DHT22;56610;48.872;2.400;2023-08-06T05:02:55;16.60;99.90
69418;DHT22;56610;48.872;2.400;2023-08-06T05:05:20;16.60;99.90
69418;DHT22;56610;48.872;2.400;2023-08-06T05:07:49;16.60;99.90
69418;DHT22;56610;48.872;2.400;2023-08-06T05:10:15;16.80;99.90
69418;DHT22;56610;48.872;2.400;2023-08-06T05:12:41;16.80;99.90
69418;DHT22;56610;48.872;2.400;2023-08-06T05:15:07;16.80;99.90
69418;DHT22;56610;48.872;2.400;2023-08-06T05:17:33;16.90;99.90
69418;DHT22;56610;48.872;2.400;2023-08-06T05:19:59;17.00;99.90
69418;DHT22;56610;48.872;2.400;2023-08-06T05:22:25;17.00;99.90
69418;DHT22;56610;48.872;2.400;2023-08-06T05:24:50;17.00;99.90
69418;DHT22;56610;48.872;2.400;2023-08-06T05:27:16;17.00;99.90
69418;DHT22;56610;48.872;2.400;2023-08-06T05:29:44;17.00;99.90
69418;DHT22;56610;48.872;2.400;2023-08-06T05:32:10;17.00;99.90
69418;DHT22;56610;48.872;2.400;2023-08-06T05:34:36;16.90;99.90
69418;DHT22;56610;48.872;2.400;2023-08-06T05:37:02;16.90;99.90
69418;DHT22;56610;48.872;2.400;2023-08-06T05:39:27;16.80;99.90
69418;DHT22;56610;48.872;2.400;2023-08-06T05:41:53;16.70;99.90
69418;DHT22;56610;48.872;2.400;2023-08-06T05:44:19;16.50;99.90
69418;DHT22;56610;48.872;2.400;2023-08-06T05:46:44;16.40;99.90
69418;DHT22;56610;48.872;2.400;2023-08-06T05:49:10;16.40;99.90
69418;DHT22;56610;48.872;2.400;2023-08-06T05:51:38;16.60;99.90
69418;DHT22;56610;48.872;2.400;2023-08-06T05:54:03;16.60;99.90
69418;DHT22;56610;48.872;2.400;2023-08-06T05:56:29;16.60;99.90
69418;DHT22;56610;48.872;2.400;2023-08-06T05:58:54;16.60;99.90
69418;DHT22;56610;48.872;2.400;2023-08-06T06:01:20;16.60;99.90
69418;DHT22;56610;48.872;2.400;2023-08-06T06:03:45;16.60;99.90
69418;DHT22;56610;48.872;2.400;2023-08-06T06:06:11;16.60;99.90
69418;DHT22;56610;48.872;2.400;2023-08-06T06:08:36;16.70;99.90
69418;DHT22;56610;48.872;2.400;2023-08-06T06:11:02;16.60;99.90
69418;DHT22;56610;48.872;2.400;2023-08-06T06:13:27;16.70;99.90
69418;DHT22;56610;48.872;2.400;2023-08-06T06:15:56;16.60;99.90
69418;DHT22;56610;48.872;2.400;2023-08-06T06:18:22;16.60;99.90
69418;DHT22;56610;48.872;2.400;2023-08-06T06:20:48;16.60;99.90
69418;DHT22;56610;48.872;2.400;2023-08-06T06:23:13;16.60;99.90
69418;DHT22;56610;48.872;2.400;2023-08-06T06:25:49;16.50;99.90
69418;DHT22;56610;48.872;2.400;2023-08-06T06:28:17;16.60;99.90
69418;DHT22;56610;48.872;2.400;2023-08-06T06:30:43;16.70;99.90
69418;DHT22;56610;48.872;2.400;2023-08-06T06:33:08;16.70;99.90
69418;DHT22;56610;48.872;2.400;2023-08-06T06:35:34;16.80;99.90
69418;DHT22;56610;48.872;2.400;2023-08-06T06:37:59;16.70;99.90
69418;DHT22;56610;48.872;2.400;2023-08-06T06:40:26;16.70;99.90
69418;DHT22;56610;48.872;2.400;2023-08-06T06:42:51;16.70;99.90
69418;DHT22;56610;48.872;2.400;2023-08-06T06:45:17;16.60;99.90
69418;DHT22;56610;48.872;2.400;2023-08-06T06:47:43;16.60;99.90
69418;DHT22;56610;48.872;2.400;2023-08-06T06:50:08;16.50;99.90
69418;DHT22;56610;48.872;2.400;2023-08-06T06:52:34;16.60;99.90
69418;DHT22;56610;48.872;2.400;2023-08-06T06:55:00;16.60;99.90
69418;DHT22;56610;48.872;2.400;2023-08-06T06:57:25;16.60;99.90
69418;DHT22;56610;48.872;2.400;2023-08-06T06:59:51;16.60;99.90
69418;DHT22;56610;48.872;2.400;2023-08-06T07:02:16;16.70;99.90
69418;DHT22;56610;48.872;2.400;2023-08-06T07:04:42;16.60;99.90
69418;DHT22;56610;48.872;2.400;2023-08-06T07:07:07;16.60;99.90
69418;DHT22;56610;48.872;2.400;2023-08-06T07:09:33;16.50;99.90
69418;DHT22;56610;48.872;2.400;2023-08-06T07:11:58;16.60;99.90
69418;DHT22;56610;48.872;2.400;2023-08-06T07:14:28;16.50;99.90
69418;DHT22;56610;48.872;2.400;2023-08-06T07:16:54;16.60;99.90
69418;DHT22;56610;48.872;2.400;2023-08-06T07:19:19;16.60;99.90
69418;DHT22;56610;48.872;2.400;2023-08-06T07:21:45;16.70;99.90
69418;DHT22;56610;48.872;2.400;2023-08-06T07:24:10;16.90;99.90
69418;DHT22;56610;48.872;2.400;2023-08-06T07:26:37;16.90;99.90
69418;DHT22;56610;48.872;2.400;2023-08-06T07:29:02;16.90;99.90
69418;DHT22;56610;48.872;2.400;2023-08-06T07:31:28;17.00;99.90
69418;DHT22;56610;48.872;2.400;2023-08-06T07:33:53;17.10;99.90
69418;DHT22;56610;48.872;2.400;2023-08-06T07:36:20;17.10;99.90
69418;DHT22;56610;48.872;2.400;2023-08-06T07:38:46;17.10;99.90
69418;DHT22;56610;48.872;2.400;2023-08-06T07:41:11;17.00;99.90
69418;DHT22;56610;48.872;2.400;2023-08-06T07:43:37;17.00;99.90
69418;DHT22;56610;48.872;2.400;2023-08-06T07:46:03;17.00;99.90
69418;DHT22;56610;48.872;2.400;2023-08-06T07:48:29;17.00;99.90
69418;DHT22;56610;48.872;2.400;2023-08-06T07:50:55;17.00;99.90
69418;DHT22;56610;48.872;2.400;2023-08-06T07:53:24;17.30;99.90
69418;DHT22;56610;48.872;2.400;2023-08-06T07:55:54;17.30;99.90
69418;DHT22;56610;48.872;2.400;2023-08-06T07:58:20;17.30;99.90
69418;DHT22;56610;48.872;2.400;2023-08-06T08:00:46;17.40;99.90
69418;DHT22;56610;48.872;2.400;2023-08-06T08:03:13;17.60;99.90
69418;DHT22;56610;48.872;2.400;2023-08-06T08:05:55;17.70;99.90
69418;DHT22;56610;48.872;2.400;2023-08-06T08:08:24;17.80;99.90
69418;DHT22;56610;48.872;2.400;2023-08-06T08:10:50;17.90;99.90
69418;DHT22;56610;48.872;2.400;2023-08-06T08:13:15;18.00;99.90
69418;DHT22;56610;48.872;2.400;2023-08-06T08:15:41;18.00;99.90
69418;DHT22;56610;48.872;2.400;2023-08-06T08:18:07;18.00;99.90
69418;DHT22;56610;48.872;2.400;2023-08-06T08:20:33;18.00;99.90
69418;DHT22;56610;48.872;2.400;2023-08-06T08:23:00;18.00;99.90
69418;DHT22;56610;48.872;2.400;2023-08-06T08:25:26;18.00;99.90
69418;DHT22;56610;48.872;2.400;2023-08-06T08:27:56;17.90;99.90
69418;DHT22;56610;48.872;2.400;2023-08-06T08:30:21;18.00;99.90
69418;DHT22;56610;48.872;2.400;2023-08-06T08:32:48;18.00;99.90
69418;DHT22;56610;48.872;2.400;2023-08-06T08:35:14;17.90;99.90
69418;DHT22;56610;48.872;2.400;2023-08-06T08:37:41;18.00;99.90
69418;DHT22;56610;48.872;2.400;2023-08-06T08:40:08;17.90;99.90
69418;DHT22;56610;48.872;2.400;2023-08-06T08:42:34;17.80;99.90
69418;DHT22;56610;48.872;2.400;2023-08-06T08:45:00;17.80;99.90
69418;DHT22;56610;48.872;2.400;2023-08-06T08:47:25;17.70;99.90
69418;DHT22;56610;48.872;2.400;2023-08-06T08:49:54;17.70;99.90
69418;DHT22;56610;48.872;2.400;2023-08-06T08:52:21;17.70;99.90
69418;DHT22;56610;48.872;2.400;2023-08-06T08:54:48;17.60;99.90
69418;DHT22;56610;48.872;2.400;2023-08-06T08:57:18;17.60;99.90
69418;DHT22;56610;48.872;2.400;2023-08-06T08:59:44;17.60;99.90
69418;DHT22;56610;48.872;2.400;2023-08-06T09:02:12;17.70;99.90
69418;DHT22;56610;48.872;2.400;2023-08-06T09:04:41;17.60;99.90
69418;DHT22;56610;48.872;2.400;2023-08-06T09:07:08;17.70;99.90
69418;DHT22;56610;48.872;2.400;2023-08-06T09:09:35;17.80;99.90
69418;DHT22;56610;48.872;2.400;2023-08-06T09:12:10;17.90;99.90
69418;DHT22;56610;48.872;2.400;2023-08-06T09:14:37;18.00;99.90
69418;DHT22;56610;48.872;2.400;2023-08-06T09:17:03;18.10;99.90
69418;DHT22;56610;48.872;2.400;2023-08-06T09:19:29;18.10;99.90
69418;DHT22;56610;48.872;2.400;2023-08-06T09:21:56;18.30;99.90
69418;DHT22;56610;48.872;2.400;2023-08-06T09:24:22;18.30;99.90
69418;DHT22;56610;48.872;2.400;2023-08-06T09:26:48;18.40;99.90
69418;DHT22;56610;48.872;2.400;2023-08-06T09:29:14;18.50;99.90
69418;DHT22;56610;48.872;2.400;2023-08-06T09:31:48;18.60;99.90
69418;DHT22;56610;48.872;2.400;2023-08-06T09:34:19;18.60;99.90
69418;DHT22;56610;48.872;2.400;2023-08-06T09:36:49;18.50;99.90
69418;DHT22;56610;48.872;2.400;2023-08-06T09:39:20;18.50;99.90
69418;DHT22;56610;48.872;2.400;2023-08-06T09:41:47;18.60;99.90
69418;DHT22;56610;48.872;2.400;2023-08-06T09:44:20;18.50;99.90
69418;DHT22;56610;48.872;2.400;2023-08-06T09:46:52;18.50;99.90
69418;DHT22;56610;48.872;2.400;2023-08-06T09:49:18;18.50;99.90
69418;DHT22;56610;48.872;2.400;2023-08-06T09:51:45;18.60;99.90
69418;DHT22;56610;48.872;2.400;2023-08-06T09:54:15;18.60;99.90
69418;DHT22;56610;48.872;2.400;2023-08-06T09:56:42;18.70;99.90
69418;DHT22;56610;48.872;2.400;2023-08-06T09:59:08;18.60;99.90
69418;DHT22;56610;48.872;2.400;2023-08-06T10:01:35;18.50;99.90
69418;DHT22;56610;48.872;2.400;2023-08-06T10:04:03;18.60;99.90
69418;DHT22;56610;48.872;2.400;2023-08-06T10:06:29;18.60;99.90
69418;DHT22;56610;48.872;2.400;2023-08-06T10:08:55;18.80;99.90
69418;DHT22;56610;48.872;2.400;2023-08-06T10:11:24;19.00;99.90
69418;DHT22;56610;48.872;2.400;2023-08-06T10:13:55;19.00;99.90
69418;DHT22;56610;48.872;2.400;2023-08-06T10:16:22;19.00;99.90
69418;DHT22;56610;48.872;2.400;2023-08-06T10:18:48;19.20;99.90
69418;DHT22;56610;48.872;2.400;2023-08-06T10:21:14;19.10;99.90
69418;DHT22;56610;48.872;2.400;2023-08-06T10:23:41;19.20;99.90
69418;DHT22;56610;48.872;2.400;2023-08-06T10:26:07;19.20;99.90
69418;DHT22;56610;48.872;2.400;2023-08-06T10:28:39;19.20;99.90
69418;DHT22;56610;48.872;2.400;2023-08-06T10:31:05;19.20;99.90
69418;DHT22;56610;48.872;2.400;2023-08-06T10:33:44;19.20;99.90
69418;DHT22;56610;48.872;2.400;2023-08-06T10:36:11;19.20;99.90
69418;DHT22;56610;48.872;2.400;2023-08-06T10:38:48;19.30;99.90
69418;DHT22;56610;48.872;2.400;2023-08-06T10:41:28;19.50;99.90
69418;DHT22;56610;48.872;2.400;2023-08-06T10:44:14;19.60;99.90
69418;DHT22;56610;48.872;2.400;2023-08-06T10:46:39;19.50;99.90
69418;DHT22;56610;48.872;2.400;2023-08-06T10:49:05;19.50;99.90
69418;DHT22;56610;48.872;2.400;2023-08-06T10:51:32;19.50;99.90
69418;DHT22;56610;48.872;2.400;2023-08-06T10:53:58;19.70;99.90
69418;DHT22;56610;48.872;2.400;2023-08-06T10:56:25;19.70;99.90
69418;DHT22;56610;48.872;2.400;2023-08-06T10:58:54;19.70;99.90
69418;DHT22;56610;48.872;2.400;2023-08-06T11:01:21;19.60;99.90
69418;DHT22;56610;48.872;2.400;2023-08-06T11:03:47;19.50;99.90
69418;DHT22;56610;48.872;2.400;2023-08-06T11:06:19;19.60;99.90
69418;DHT22;56610;48.872;2.400;2023-08-06T11:08:51;19.70;99.90
69418;DHT22;56610;48.872;2.400;2023-08-06T11:11:18;19.80;99.90
69418;DHT22;56610;48.872;2.400;2023-08-06T11:13:46;20.00;99.90
69418;DHT22;56610;48.872;2.400;2023-08-06T11:16:14;20.00;99.90
69418;DHT22;56610;48.872;2.400;2023-08-06T11:18:40;20.10;99.90
69418;DHT22;56610;48.872;2.400;2023-08-06T11:21:06;20.10;99.90
69418;DHT22;56610;48.872;2.400;2023-08-06T11:23:34;20.30;99.90
69418;DHT22;56610;48.872;2.400;2023-08-06T11:26:00;20.30;99.90
69418;DHT22;56610;48.872;2.400;2023-08-06T11:28:25;20.40;99.90
69418;DHT22;56610;48.872;2.400;2023-08-06T11:30:52;20.50;99.90
69418;DHT22;56610;48.872;2.400;2023-08-06T11:33:25;20.50;99.90
69418;DHT22;56610;48.872;2.400;2023-08-06T11:35:51;20.30;99.90
69418;DHT22;56610;48.872;2.400;2023-08-06T11:38:17;20.30;99.90
69418;DHT22;56610;48.872;2.400;2023-08-06T11:40:44;20.30;99.90
69418;DHT22;56610;48.872;2.400;2023-08-06T11:43:12;20.20;99.90
69418;DHT22;56610;48.872;2.400;2023-08-06T11:45:38;20.10;99.90
69418;DHT22;56610;48.872;2.400;2023-08-06T11:48:03;20.10;99.90
69418;DHT22;56610;48.872;2.400;2023-08-06T11:50:30;20.10;99.90
69418;DHT22;56610;48.872;2.400;2023-08-06T11:53:00;20.10;99.90
69418;DHT22;56610;48.872;2.400;2023-08-06T11:55:27;20.00;99.90
69418;DHT22;56610;48.872;2.400;2023-08-06T11:57:54;20.00;99.90
69418;DHT22;56610;48.872;2.400;2023-08-06T12:00:23;20.00;99.90
69418;DHT22;56610;48.872;2.400;2023-08-06T12:02:49;20.10;99.90
69418;DHT22;56610;48.872;2.400;2023-08-06T12:05:18;20.10;99.90
69418;DHT22;56610;48.872;2.400;2023-08-06T12:07:54;20.30;99.90
69418;DHT22;56610;48.872;2.400;2023-08-06T12:10:21;20.40;99.90
69418;DHT22;56610;48.872;2.400;2023-08-06T12:12:47;20.50;99.90
69418;DHT22;56610;48.872;2.400;2023-08-06T12:15:13;20.50;99.90
69418;DHT22;56610;48.872;2.400;2023-08-06T12:17:39;20.30;99.90
69418;DHT22;56610;48.872;2.400;2023-08-06T12:20:06;20.30;99.90
69418;DHT22;56610;48.872;2.400;2023-08-06T12:22:33;20.20;99.90
69418;DHT22;56610;48.872;2.400;2023-08-06T12:25:00;20.20;99.90
69418;DHT22;56610;48.872;2.400;2023-08-06T12:27:26;20.10;99.90
69418;DHT22;56610;48.872;2.400;2023-08-06T12:29:52;20.10;99.90
69418;DHT22;56610;48.872;2.400;2023-08-06T12:32:17;20.20;99.90
69418;DHT22;56610;48.872;2.400;2023-08-06T12:34:44;20.20;99.90
69418;DHT22;56610;48.872;2.400;2023-08-06T12:37:10;20.20;99.90
69418;DHT22;56610;48.872;2.400;2023-08-06T12:39:36;20.20;99.90
69418;DHT22;56610;48.872;2.400;2023-08-06T12:42:03;20.30;99.90
69418;DHT22;56610;48.872;2.400;2023-08-06T12:44:29;20.40;99.90
69418;DHT22;56610;48.872;2.400;2023-08-06T12:46:55;20.60;99.90
69418;DHT22;56610;48.872;2.400;2023-08-06T12:49:21;20.70;99.90
69418;DHT22;56610;48.872;2.400;2023-08-06T12:51:48;20.90;99.90
69418;DHT22;56610;48.872;2.400;2023-08-06T12:54:13;21.10;99.90
69418;DHT22;56610;48.872;2.400;2023-08-06T12:56:39;21.20;99.90
69418;DHT22;56610;48.872;2.400;2023-08-06T12:59:05;21.30;99.90
69418;DHT22;56610;48.872;2.400;2023-08-06T13:01:30;21.40;99.90
69418;DHT22;56610;48.872;2.400;2023-08-06T13:03:56;21.30;99.90
69418;DHT22;56610;48.872;2.400;2023-08-06T13:06:22;21.40;99.90
69418;DHT22;56610;48.872;2.400;2023-08-06T13:08:47;21.40;99.90
69418;DHT22;56610;48.872;2.400;2023-08-06T13:11:13;21.30;99.90
69418;DHT22;56610;48.872;2.400;2023-08-06T13:13:38;21.30;99.90
69418;DHT22;56610;48.872;2.400;2023-08-06T13:16:04;21.40;99.90
69418;DHT22;56610;48.872;2.400;2023-08-06T13:18:29;21.40;99.90
69418;DHT22;56610;48.872;2.400;2023-08-06T13:20:56;21.30;99.90
69418;DHT22;56610;48.872;2.400;2023-08-06T13:23:22;21.20;99.90
69418;DHT22;56610;48.872;2.400;2023-08-06T13:25:47;21.10;99.90
69418;DHT22;56610;48.872;2.400;2023-08-06T13:28:13;21.00;99.90
69418;DHT22;56610;48.872;2.400;2023-08-06T13:30:41;20.80;99.90
69418;DHT22;56610;48.872;2.400;2023-08-06T13:33:11;20.80;99.90
69418;DHT22;56610;48.872;2.400;2023-08-06T13:35:37;20.70;99.90
69418;DHT22;56610;48.872;2.400;2023-08-06T13:38:03;20.80;99.90
69418;DHT22;56610;48.872;2.400;2023-08-06T13:40:29;20.80;99.90
69418;DHT22;56610;48.872;2.400;2023-08-06T13:42:55;20.90;99.90
69418;DHT22;56610;48.872;2.400;2023-08-06T13:45:21;21.00;99.90
69418;DHT22;56610;48.872;2.400;2023-08-06T13:47:47;21.20;99.90
69418;DHT22;56610;48.872;2.400;2023-08-06T13:50:13;21.30;99.90
69418;DHT22;56610;48.872;2.400;2023-08-06T13:52:39;21.60;99.90
69418;DHT22;56610;48.872;2.400;2023-08-06T13:55:05;22.00;99.90
69418;DHT22;56610;48.872;2.400;2023-08-06T13:57:31;22.40;99.90
69418;DHT22;56610;48.872;2.400;2023-08-06T13:59:56;22.60;99.90
69418;DHT22;56610;48.872;2.400;2023-08-06T14:02:22;22.50;99.90
69418;DHT22;56610;48.872;2.400;2023-08-06T14:04:48;22.40;99.90
69418;DHT22;56610;48.872;2.400;2023-08-06T14:07:13;22.50;99.90
69418;DHT22;56610;48.872;2.400;2023-08-06T14:09:39;22.50;99.90
69418;DHT22;56610;48.872;2.400;2023-08-06T14:12:05;22.50;99.90
69418;DHT22;56610;48.872;2.400;2023-08-06T14:14:31;22.60;99.90
69418;DHT22;56610;48.872;2.400;2023-08-06T14:16:57;22.30;99.90
69418;DHT22;56610;48.872;2.400;2023-08-06T14:19:23;22.10;99.90
69418;DHT22;56610;48.872;2.400;2023-08-06T14:21:49;22.10;99.90
69418;DHT22;56610;48.872;2.400;2023-08-06T14:24:14;22.10;99.90
69418;DHT22;56610;48.872;2.400;2023-08-06T14:26:40;22.20;99.90
69418;DHT22;56610;48.872;2.400;2023-08-06T14:29:06;22.10;99.90
69418;DHT22;56610;48.872;2.400;2023-08-06T14:31:32;22.00;99.90
69418;DHT22;56610;48.872;2.400;2023-08-06T14:33:57;21.70;99.90
69418;DHT22;56610;48.872;2.400;2023-08-06T14:36:23;21.40;99.90
69418;DHT22;56610;48.872;2.400;2023-08-06T14:38:49;21.20;99.90
69418;DHT22;56610;48.872;2.400;2023-08-06T14:41:14;21.20;99.90
69418;DHT22;56610;48.872;2.400;2023-08-06T14:43:40;21.40;99.90
69418;DHT22;56610;48.872;2.400;2023-08-06T14:46:05;21.50;99.90
69418;DHT22;56610;48.872;2.400;2023-08-06T14:48:31;21.50;99.90
69418;DHT22;56610;48.872;2.400;2023-08-06T14:50:57;21.50;99.90
69418;DHT22;56610;48.872;2.400;2023-08-06T14:53:22;21.40;99.90
69418;DHT22;56610;48.872;2.400;2023-08-06T14:55:48;21.10;99.90
69418;DHT22;56610;48.872;2.400;2023-08-06T14:58:14;21.00;99.90
69418;DHT22;56610;48.872;2.400;2023-08-06T15:00:40;21.10;99.90
69418;DHT22;56610;48.872;2.400;2023-08-06T15:03:05;21.10;99.90
69418;DHT22;56610;48.872;2.400;2023-08-06T15:05:31;21.20;99.90
69418;DHT22;56610;48.872;2.400;2023-08-06T15:07:56;21.30;99.90
69418;DHT22;56610;48.872;2.400;2023-08-06T15:10:22;21.30;99.90
69418;DHT22;56610;48.872;2.400;2023-08-06T15:12:48;21.30;99.90
69418;DHT22;56610;48.872;2.400;2023-08-06T15:15:14;21.30;99.90
69418;DHT22;56610;48.872;2.400;2023-08-06T15:17:39;21.30;99.90
69418;DHT22;56610;48.872;2.400;2023-08-06T15:20:05;21.20;99.90
69418;DHT22;56610;48.872;2.400;2023-08-06T15:22:31;21.20;99.90
69418;DHT22;56610;48.872;2.400;2023-08-06T15:25:01;21.30;99.90
69418;DHT22;56610;48.872;2.400;2023-08-06T15:27:28;21.20;99.90
69418;DHT22;56610;48.872;2.400;2023-08-06T15:29:53;21.10;99.90
69418;DHT22;56610;48.872;2.400;2023-08-06T15:32:19;21.00;99.90